Terminal Aerodrome Forecast
Issued by NWS Buffalo, NY

Home | Current Version | Previous Version | Text Only | Print | Product List | Glossary On
Versions: 1 2 3 4 5 6 7 8 9 10 11 12 13 14 15 16 17 18 19 20 21 22 23 24 25 26 27 28 29 30 31 32 33 34 35 36 37 38 39 40 41 42 43 44 45 46 47 48 49 50
000
FTUS41 KBUF 161212 AAA
TAFBUF
TAF AMD
KBUF 161212Z 1612/1712 23012KT P6SM SCT100
     FM161500 23013G22KT P6SM FEW120
     FM162300 22011KT P6SM BKN045
     FM170500 21005KT 6SM BR VCSH OVC035
     FM170600 21005KT 6SM -SHRA BR BKN025=

USA.gov is the U.S. government's official web portal to all federal, state and local government web resources and services.